createdAt,value
2023-02-05T00:00:44.412Z,1032.73
2023-02-05T00:01:44.283Z,1032.76
2023-02-05T00:02:44.383Z,1032.70
2023-02-05T00:03:44.296Z,1032.71
2023-02-05T00:04:44.345Z,1032.76
2023-02-05T00:05:44.248Z,1032.69
2023-02-05T00:06:44.308Z,1032.73
2023-02-05T00:07:44.222Z,1032.74
2023-02-05T00:08:44.317Z,1032.74
2023-02-05T00:09:44.234Z,1032.75
2023-02-05T00:10:44.230Z,1032.70
2023-02-05T00:11:44.186Z,1032.68
2023-02-05T00:12:44.248Z,1032.62
2023-02-05T00:13:44.175Z,1032.53
2023-02-05T00:14:44.212Z,1032.50
2023-02-05T00:15:44.133Z,1032.49
2023-02-05T00:16:44.202Z,1032.50
2023-02-05T00:17:44.117Z,1032.45
2023-02-05T00:18:44.184Z,1032.44
2023-02-05T00:19:44.112Z,1032.41
2023-02-05T00:21:05.195Z,1032.41
2023-02-05T00:21:44.066Z,1032.42
2023-02-05T00:22:44.072Z,1032.43
2023-02-05T00:23:46.170Z,1032.46
2023-02-05T00:24:44.090Z,1032.50
2023-02-05T00:25:45.069Z,1032.47
2023-02-05T00:26:44.021Z,1032.50
2023-02-05T00:27:44.091Z,1032.49
2023-02-05T00:28:43.999Z,1032.53
2023-02-05T00:29:45.053Z,1032.51
2023-02-05T00:30:44.035Z,1032.40
2023-02-05T00:31:44.193Z,1032.40
2023-02-05T00:32:43.962Z,1032.34
2023-02-05T00:33:43.993Z,1032.32
2023-02-05T00:34:43.956Z,1032.28
2023-02-05T00:35:43.994Z,1032.30
2023-02-05T00:36:43.917Z,1032.27
2023-02-05T00:37:44.007Z,1032.26
2023-02-05T00:38:43.891Z,1032.28
2023-02-05T00:39:43.972Z,1032.24
2023-02-05T00:40:43.872Z,1032.21
2023-02-05T00:41:43.947Z,1032.14
2023-02-05T00:42:43.853Z,1032.10
2023-02-05T00:43:43.960Z,1032.08
2023-02-05T00:44:43.848Z,1032.07
2023-02-05T00:45:43.860Z,1032.13
2023-02-05T00:46:43.812Z,1032.09
2023-02-05T00:47:43.878Z,1032.09
2023-02-05T00:48:43.786Z,1032.11
2023-02-05T00:49:43.836Z,1032.01
2023-02-05T00:50:43.762Z,1032.00
2023-02-05T00:51:43.801Z,1032.03
2023-02-05T00:52:43.764Z,1031.90
2023-02-05T00:53:43.823Z,1031.87
2023-02-05T00:54:43.747Z,1031.81
2023-02-05T00:55:43.725Z,1031.81
2023-02-05T00:56:43.695Z,1031.79
2023-02-05T00:57:43.761Z,1031.78
2023-02-05T00:58:43.683Z,1031.73
2023-02-05T00:59:43.759Z,1031.65
2023-02-05T01:00:43.678Z,1031.58
2023-02-05T01:01:43.833Z,1031.53
2023-02-05T01:02:43.652Z,1031.55
2023-02-05T01:03:43.677Z,1031.51
2023-02-05T01:04:43.614Z,1031.53
2023-02-05T01:05:43.644Z,1031.51
2023-02-05T01:06:43.598Z,1031.47
2023-02-05T01:08:04.701Z,1031.57
2023-02-05T01:08:43.578Z,1031.54
2023-02-05T01:09:45.669Z,1031.56
2023-02-05T01:10:43.570Z,1031.61
2023-02-05T01:11:44.661Z,1031.47
2023-02-05T01:12:43.536Z,1031.50
2023-02-05T01:13:43.563Z,1031.55
2023-02-05T01:14:43.519Z,1031.48
2023-02-05T01:15:45.660Z,1031.52
2023-02-05T01:16:43.500Z,1031.52
2023-02-05T01:17:44.513Z,1031.56
2023-02-05T01:18:43.476Z,1031.60
2023-02-05T01:19:43.485Z,1031.57
2023-02-05T01:20:43.470Z,1031.57
2023-02-05T01:21:43.503Z,1031.59
2023-02-05T01:22:43.432Z,1031.50
2023-02-05T01:23:43.514Z,1031.54
2023-02-05T01:24:43.411Z,1031.54
2023-02-05T01:25:43.481Z,1031.54
2023-02-05T01:26:43.388Z,1031.58
2023-02-05T01:27:44.488Z,1031.60
2023-02-05T01:28:43.372Z,1031.55
2023-02-05T01:29:43.473Z,1031.68
2023-02-05T01:30:43.497Z,1031.68
2023-02-05T01:31:43.568Z,1031.65
2023-02-05T01:32:43.326Z,1031.59
2023-02-05T01:33:43.387Z,1031.58
2023-02-05T01:34:43.301Z,1031.54
2023-02-05T01:35:43.341Z,1031.55
2023-02-05T01:36:43.340Z,1031.50
2023-02-05T01:37:43.304Z,1031.49
2023-02-05T01:38:43.273Z,1031.44
2023-02-05T01:39:43.318Z,1031.46
2023-02-05T01:40:43.270Z,1031.44
2023-02-05T01:41:43.328Z,1031.40
2023-02-05T01:42:43.218Z,1031.49
2023-02-05T01:43:43.253Z,1031.48
2023-02-05T01:44:43.212Z,1031.45
2023-02-05T01:45:43.331Z,1031.46
2023-02-05T01:46:43.256Z,1031.41
2023-02-05T01:47:43.170Z,1031.41
2023-02-05T01:48:43.149Z,1031.29
2023-02-05T01:49:43.182Z,1031.32
2023-02-05T01:50:43.146Z,1031.32
2023-02-05T01:51:43.203Z,1031.34
2023-02-05T01:52:43.114Z,1031.36
2023-02-05T01:53:43.207Z,1031.33
2023-02-05T01:54:43.085Z,1031.38
2023-02-05T01:55:43.167Z,1031.34
2023-02-05T01:56:43.063Z,1031.33
2023-02-05T01:57:44.152Z,1031.37
2023-02-05T01:58:43.045Z,1031.37
2023-02-05T02:00:52.633Z,1031.27
2023-02-05T02:01:52.529Z,1031.26
2023-02-05T02:02:52.582Z,1031.27
2023-02-05T02:03:52.494Z,1031.31
2023-02-05T02:04:52.696Z,1031.31
2023-02-05T02:05:52.494Z,1031.34
2023-02-05T02:07:15.491Z,1031.39
2023-02-05T02:07:52.472Z,1031.39
2023-02-05T02:09:14.536Z,1031.36
2023-02-05T02:09:52.429Z,1031.33
2023-02-05T02:10:52.492Z,1031.31
2023-02-05T02:11:52.407Z,1031.31
2023-02-05T02:12:52.449Z,1031.27
2023-02-05T02:13:52.392Z,1031.19
2023-02-05T02:14:52.461Z,1031.31
2023-02-05T02:15:52.403Z,1031.29
2023-02-05T02:16:52.389Z,1031.29
2023-02-05T02:17:52.349Z,1031.22
2023-02-05T02:18:52.386Z,1031.28
2023-02-05T02:19:52.340Z,1031.21
2023-02-05T02:20:52.353Z,1031.23
2023-02-05T02:21:52.314Z,1031.27
2023-02-05T02:22:52.314Z,1031.25
2023-02-05T02:23:52.283Z,1031.21
2023-02-05T02:24:52.327Z,1031.24
2023-02-05T02:25:52.279Z,1031.30
2023-02-05T02:26:52.351Z,1031.29
2023-02-05T02:27:52.265Z,1031.30
2023-02-05T02:28:52.253Z,1031.32
2023-02-05T02:29:52.218Z,1031.28
2023-02-05T02:30:52.485Z,1031.33
2023-02-05T02:31:52.200Z,1031.28
2023-02-05T02:32:52.305Z,1031.26
2023-02-05T02:33:52.185Z,1031.28
2023-02-05T02:34:52.188Z,1031.20
2023-02-05T02:35:52.168Z,1031.24
2023-02-05T02:36:52.202Z,1031.25
2023-02-05T02:37:52.138Z,1031.22
2023-02-05T02:38:52.217Z,1031.18
2023-02-05T02:39:52.111Z,1031.11
2023-02-05T02:40:52.177Z,1031.24
2023-02-05T02:41:52.093Z,1031.18
2023-02-05T02:42:52.148Z,1031.07
2023-02-05T02:43:52.075Z,1031.00
2023-02-05T02:44:52.159Z,1030.99
2023-02-05T02:45:52.072Z,1030.94
2023-02-05T02:46:52.118Z,1030.94
2023-02-05T02:47:52.028Z,1030.94
2023-02-05T02:48:52.103Z,1030.97
2023-02-05T02:49:52.012Z,1030.91
2023-02-05T02:50:52.047Z,1030.93
2023-02-05T02:51:51.993Z,1030.94
2023-02-05T02:52:53.042Z,1030.98
2023-02-05T02:53:51.966Z,1030.98
2023-02-05T02:54:53.062Z,1030.95
2023-02-05T02:55:51.969Z,1030.96
2023-02-05T02:56:52.962Z,1030.95
2023-02-05T02:57:51.930Z,1030.91
2023-02-05T02:58:51.957Z,1030.88
2023-02-05T02:59:51.907Z,1030.87
2023-02-05T03:00:52.082Z,1030.84
2023-02-05T03:01:54.076Z,1030.79
2023-02-05T03:02:52.908Z,1030.75
2023-02-05T03:03:51.901Z,1030.73
2023-02-05T03:04:51.938Z,1030.77
2023-02-05T03:05:51.868Z,1030.78
2023-02-05T03:06:51.907Z,1030.64
2023-02-05T03:07:51.818Z,1030.64
2023-02-05T03:08:51.924Z,1030.53
2023-02-05T03:09:51.806Z,1030.56
2023-02-05T03:10:51.889Z,1030.53
2023-02-05T03:11:51.801Z,1030.53
2023-02-05T03:12:51.861Z,1030.55
2023-02-05T03:13:51.759Z,1030.59
2023-02-05T03:14:51.867Z,1030.59
2023-02-05T03:15:51.848Z,1030.62
2023-02-05T03:16:51.778Z,1030.63
2023-02-05T03:17:51.725Z,1030.58
2023-02-05T03:18:51.794Z,1030.56
2023-02-05T03:19:51.693Z,1030.51
2023-02-05T03:20:51.784Z,1030.55
2023-02-05T03:21:51.675Z,1030.53
2023-02-05T03:22:51.667Z,1030.58
2023-02-05T03:23:51.655Z,1030.52
2023-02-05T03:24:51.724Z,1030.49
2023-02-05T03:25:51.654Z,1030.51
2023-02-05T03:26:51.638Z,1030.54
2023-02-05T03:27:51.641Z,1030.53
2023-02-05T03:28:51.654Z,1030.54
2023-02-05T03:29:51.596Z,1030.60
2023-02-05T03:30:51.675Z,1030.59
2023-02-05T03:31:51.589Z,1030.64
2023-02-05T03:32:51.577Z,1030.56
2023-02-05T03:33:51.550Z,1030.57
2023-02-05T03:34:51.592Z,1030.59
2023-02-05T03:35:51.553Z,1030.60
2023-02-05T03:36:51.622Z,1030.57
2023-02-05T03:37:51.512Z,1030.64
2023-02-05T03:39:12.611Z,1030.61
2023-02-05T03:39:51.486Z,1030.63
2023-02-05T03:40:51.580Z,1030.59
2023-02-05T03:41:51.460Z,1030.57
2023-02-05T03:42:51.546Z,1030.49
2023-02-05T03:43:51.436Z,1030.51
2023-02-05T03:44:51.457Z,1030.48
2023-02-05T03:45:51.474Z,1030.44
2023-02-05T03:47:12.459Z,1030.42
2023-02-05T03:47:51.395Z,1030.38
2023-02-05T03:48:52.404Z,1030.33
2023-02-05T03:49:51.379Z,1030.31
2023-02-05T03:50:51.446Z,1030.32
2023-02-05T03:51:51.353Z,1030.30
2023-02-05T03:52:51.437Z,1030.30
2023-02-05T03:53:51.332Z,1030.31
2023-02-05T03:54:51.430Z,1030.26
2023-02-05T03:55:51.331Z,1030.29
2023-02-05T03:56:51.336Z,1030.24
2023-02-05T03:57:51.289Z,1030.33
2023-02-05T03:58:51.350Z,1030.37
2023-02-05T03:59:51.265Z,1030.36
2023-02-05T04:00:51.339Z,1030.42
2023-02-05T04:01:51.243Z,1030.40
2023-02-05T04:02:51.272Z,1030.45
2023-02-05T04:03:51.320Z,1030.53
2023-02-05T04:04:51.289Z,1030.53
2023-02-05T04:05:51.226Z,1030.54
2023-02-05T04:06:51.295Z,1030.53
2023-02-05T04:07:51.176Z,1030.52
2023-02-05T04:08:51.227Z,1030.42
2023-02-05T04:09:51.167Z,1030.46
2023-02-05T04:10:51.265Z,1030.49
2023-02-05T04:11:51.138Z,1030.47
2023-02-05T04:12:51.234Z,1030.50
2023-02-05T04:13:51.111Z,1030.52
2023-02-05T04:14:51.138Z,1030.48
2023-02-05T04:15:51.090Z,1030.48
2023-02-05T04:16:51.200Z,1030.43
2023-02-05T04:17:51.067Z,1030.37
2023-02-05T04:18:51.167Z,1030.33
2023-02-05T04:19:51.048Z,1030.31
2023-02-05T04:20:51.092Z,1030.26
2023-02-05T04:21:51.049Z,1030.28
2023-02-05T04:22:51.191Z,1030.31
2023-02-05T04:23:51.039Z,1030.27
2023-02-05T04:24:51.143Z,1030.29
2023-02-05T04:25:50.991Z,1030.23
2023-02-05T04:26:51.069Z,1030.25
2023-02-05T04:27:51.132Z,1030.30
2023-02-05T04:29:13.055Z,1030.29
2023-02-05T04:29:50.953Z,1030.25
2023-02-05T04:30:51.034Z,1030.23
2023-02-05T04:31:50.956Z,1030.21
2023-02-05T04:33:11.950Z,1030.25
2023-02-05T04:33:50.906Z,1030.32
2023-02-05T04:34:52.919Z,1030.28
2023-02-05T04:35:50.886Z,1030.29
2023-02-05T04:36:50.937Z,1030.28
2023-02-05T04:37:50.866Z,1030.30
2023-02-05T04:38:50.915Z,1030.28
2023-02-05T04:39:50.846Z,1030.25
2023-02-05T04:40:50.950Z,1030.21
2023-02-05T04:41:50.840Z,1030.09
2023-02-05T04:42:50.829Z,1030.10
2023-02-05T04:43:50.802Z,1030.15
2023-02-05T04:44:50.841Z,1030.11
2023-02-05T04:45:50.788Z,1030.04
2023-02-05T04:46:50.804Z,1030.03
2023-02-05T04:47:50.757Z,1029.96
2023-02-05T04:48:50.768Z,1029.92
2023-02-05T04:49:50.744Z,1029.83
2023-02-05T04:50:50.788Z,1029.89
2023-02-05T04:51:50.729Z,1029.85
2023-02-05T04:52:50.798Z,1029.76
2023-02-05T04:53:50.694Z,1029.74
2023-02-05T04:54:50.708Z,1029.78
2023-02-05T04:55:50.676Z,1029.81
2023-02-05T04:56:50.799Z,1029.88
2023-02-05T04:57:52.584Z,1029.86
2023-02-05T04:58:50.740Z,1029.85
2023-02-05T04:59:50.635Z,1029.87
2023-02-05T05:00:50.665Z,1029.89
2023-02-05T05:01:50.635Z,1029.93
2023-02-05T05:02:50.661Z,1029.91
2023-02-05T05:03:50.590Z,1029.84
2023-02-05T05:04:50.674Z,1029.87
2023-02-05T05:05:50.577Z,1029.82
2023-02-05T05:06:50.637Z,1029.84
2023-02-05T05:07:50.550Z,1029.75
2023-02-05T05:08:50.603Z,1029.82
2023-02-05T05:09:52.334Z,1029.81
2023-02-05T05:10:50.612Z,1029.79
2023-02-05T05:11:50.530Z,1029.81
2023-02-05T05:12:51.566Z,1029.94
2023-02-05T05:13:50.480Z,1029.86
2023-02-05T05:14:52.586Z,1029.86
2023-02-05T05:15:50.468Z,1029.84
2023-02-05T05:16:50.502Z,1029.87
2023-02-05T05:17:50.440Z,1029.87
2023-02-05T05:19:11.440Z,1029.83
2023-02-05T05:19:50.415Z,1029.82
2023-02-05T05:20:52.420Z,1029.86
2023-02-05T05:21:50.412Z,1029.81
2023-02-05T05:22:50.488Z,1029.82
2023-02-05T05:23:50.374Z,1029.83
2023-02-05T05:24:50.402Z,1029.84
2023-02-05T05:25:50.354Z,1029.83
2023-02-05T05:26:50.473Z,1029.89
2023-02-05T05:27:50.338Z,1029.89
2023-02-05T05:28:50.506Z,1029.83
2023-02-05T05:29:50.308Z,1029.81
2023-02-05T05:30:50.351Z,1029.81
2023-02-05T05:31:50.316Z,1029.83
2023-02-05T05:32:50.353Z,1029.82
2023-02-05T05:33:50.271Z,1029.82
2023-02-05T05:34:50.366Z,1029.78
2023-02-05T05:35:50.247Z,1029.92
2023-02-05T05:36:50.343Z,1029.91
2023-02-05T05:37:50.224Z,1029.87
2023-02-05T05:38:50.294Z,1029.90
2023-02-05T05:39:50.209Z,1029.86
2023-02-05T05:40:50.306Z,1029.81
2023-02-05T05:41:50.205Z,1029.76
2023-02-05T05:42:50.219Z,1029.82
2023-02-05T05:43:50.159Z,1029.73
2023-02-05T05:44:50.260Z,1029.71
2023-02-05T05:45:50.184Z,1029.67
2023-02-05T05:46:50.202Z,1029.62
2023-02-05T05:47:50.117Z,1029.58
2023-02-05T05:48:50.159Z,1029.55
2023-02-05T05:49:50.096Z,1029.54
2023-02-05T05:50:50.181Z,1029.54
2023-02-05T05:51:50.092Z,1029.46
2023-02-05T05:52:50.095Z,1029.44
2023-02-05T05:53:50.057Z,1029.51
2023-02-05T05:54:50.096Z,1029.43
2023-02-05T05:55:50.032Z,1029.40
2023-02-05T05:56:50.060Z,1029.44
2023-02-05T05:57:50.009Z,1029.42
2023-02-05T05:58:50.023Z,1029.39
2023-02-05T05:59:49.995Z,1029.42
2023-02-05T06:00:51.078Z,1029.41
2023-02-05T06:01:49.994Z,1029.38
2023-02-05T06:03:11.057Z,1029.45
2023-02-05T06:03:49.957Z,1029.40
2023-02-05T06:04:50.051Z,1029.47
2023-02-05T06:05:49.924Z,1029.42
2023-02-05T06:06:50.033Z,1029.43
2023-02-05T06:07:49.902Z,1029.41
2023-02-05T06:08:50.906Z,1029.40
2023-02-05T06:09:49.883Z,1029.37
2023-02-05T06:10:49.901Z,1029.47
2023-02-05T06:11:49.876Z,1029.38
2023-02-05T06:12:49.907Z,1029.45
2023-02-05T06:13:49.836Z,1029.44
2023-02-05T06:14:49.937Z,1029.45
2023-02-05T06:15:49.857Z,1029.37
2023-02-05T06:16:49.906Z,1029.38
2023-02-05T06:17:49.802Z,1029.36
2023-02-05T06:18:49.945Z,1029.35
2023-02-05T06:19:49.770Z,1029.34
2023-02-05T06:20:49.860Z,1029.34
2023-02-05T06:21:49.789Z,1029.32
2023-02-05T06:22:49.773Z,1029.32
2023-02-05T06:23:49.731Z,1029.26
2023-02-05T06:24:49.791Z,1029.30
2023-02-05T06:25:49.706Z,1029.29
2023-02-05T06:26:49.746Z,1029.30
2023-02-05T06:27:49.770Z,1029.30
2023-02-05T06:28:49.713Z,1029.25
2023-02-05T06:29:49.664Z,1029.21
2023-02-05T06:30:49.811Z,1029.25
2023-02-05T06:31:49.884Z,1029.24
2023-02-05T06:32:49.760Z,1029.27
2023-02-05T06:33:49.623Z,1029.25
2023-02-05T06:34:49.651Z,1029.21
2023-02-05T06:35:49.605Z,1029.22
2023-02-05T06:36:49.722Z,1029.21
2023-02-05T06:37:49.587Z,1029.21
2023-02-05T06:38:49.681Z,1029.21
2023-02-05T06:39:49.559Z,1029.23
2023-02-05T06:40:49.592Z,1029.24
2023-02-05T06:41:49.557Z,1029.27
2023-02-05T06:42:49.609Z,1029.27
2023-02-05T06:43:49.534Z,1029.33
2023-02-05T06:44:49.632Z,1029.30
2023-02-05T06:45:49.504Z,1029.32
2023-02-05T06:46:49.595Z,1029.30
2023-02-05T06:47:49.476Z,1029.35
2023-02-05T06:48:50.587Z,1029.30
2023-02-05T06:49:49.464Z,1029.33
2023-02-05T06:50:49.562Z,1029.34
2023-02-05T06:51:49.469Z,1029.38
2023-02-05T06:52:52.538Z,1029.34
2023-02-05T06:53:49.414Z,1029.36
2023-02-05T06:54:49.490Z,1029.38
2023-02-05T06:55:49.391Z,1029.35
2023-02-05T06:56:49.452Z,1029.37
2023-02-05T06:57:49.385Z,1029.32
2023-02-05T06:58:49.412Z,1029.29
2023-02-05T06:59:49.351Z,1029.34
2023-02-05T07:00:49.430Z,1029.31
2023-02-05T07:01:49.363Z,1029.29
2023-02-05T07:02:49.400Z,1029.30
2023-02-05T07:03:49.310Z,1029.29
2023-02-05T07:04:49.364Z,1029.30
2023-02-05T07:05:49.286Z,1029.26
2023-02-05T07:06:49.315Z,1029.23
2023-02-05T07:07:49.974Z,1029.29
2023-02-05T07:08:49.269Z,1029.24
2023-02-05T07:09:49.252Z,1029.25
2023-02-05T07:10:49.298Z,1029.26
2023-02-05T07:11:49.244Z,1029.21
2023-02-05T07:12:49.305Z,1029.25
2023-02-05T07:13:49.205Z,1029.19
2023-02-05T07:14:49.219Z,1029.19
2023-02-05T07:15:49.237Z,1029.16
2023-02-05T07:16:49.289Z,1029.11
2023-02-05T07:17:49.163Z,1029.11
2023-02-05T07:18:49.244Z,1029.10
2023-02-05T07:19:49.161Z,1029.05
2023-02-05T07:20:49.180Z,1029.07
2023-02-05T07:21:49.143Z,1029.09
2023-02-05T07:22:49.175Z,1029.07
2023-02-05T07:23:49.098Z,1029.06
2023-02-05T07:24:49.200Z,1029.05
2023-02-05T07:25:49.076Z,1029.07
2023-02-05T07:26:49.101Z,1029.09
2023-02-05T07:27:49.099Z,1029.04
2023-02-05T07:28:49.114Z,1029.09
2023-02-05T07:29:49.043Z,1029.05
2023-02-05T07:30:49.154Z,1029.01
2023-02-05T07:31:49.086Z,1029.01
2023-02-05T07:32:49.093Z,1028.98
2023-02-05T07:33:48.994Z,1029.02
2023-02-05T07:34:50.076Z,1029.02
2023-02-05T07:35:48.974Z,1029.05
2023-02-05T07:36:49.083Z,1029.05
2023-02-05T07:37:48.968Z,1029.05
2023-02-05T07:39:11.020Z,1029.05
2023-02-05T07:39:48.922Z,1029.12
2023-02-05T07:40:48.915Z,1029.09
2023-02-05T07:41:50.023Z,1029.10
2023-02-05T07:42:48.907Z,1029.01
2023-02-05T07:43:48.906Z,1029.06
2023-02-05T07:44:48.870Z,1029.06
2023-02-05T07:45:48.915Z,1029.10
2023-02-05T07:46:48.966Z,1029.06
2023-02-05T07:47:48.881Z,1029.09
2023-02-05T07:48:48.826Z,1029.04
2023-02-05T07:49:48.844Z,1029.03
2023-02-05T07:50:48.810Z,1029.06
2023-02-05T07:51:48.882Z,1029.09
2023-02-05T07:52:48.814Z,1029.06
2023-02-05T07:53:48.867Z,1029.07
2023-02-05T07:54:48.758Z,1029.12
2023-02-05T07:55:48.781Z,1029.13
2023-02-05T07:56:48.734Z,1029.13
2023-02-05T07:57:48.852Z,1029.17
2023-02-05T07:58:48.722Z,1029.12
2023-02-05T07:59:48.810Z,1029.09
2023-02-05T08:00:48.787Z,1029.08
2023-02-05T08:01:48.742Z,1029.09
2023-02-05T08:02:48.688Z,1029.12
2023-02-05T08:03:48.740Z,1029.08
2023-02-05T08:04:48.652Z,1029.18
2023-02-05T08:05:48.748Z,1029.21
2023-02-05T08:06:48.727Z,1029.14
2023-02-05T08:07:48.711Z,1029.18
2023-02-05T08:08:48.628Z,1029.14
2023-02-05T08:09:48.676Z,1029.13
2023-02-05T08:10:48.600Z,1029.17
2023-02-05T08:11:48.690Z,1029.17
2023-02-05T08:12:48.578Z,1029.16
2023-02-05T08:13:48.601Z,1029.17
2023-02-05T08:14:48.544Z,1029.17
2023-02-05T08:15:48.635Z,1029.17
2023-02-05T08:16:48.536Z,1029.16
2023-02-05T08:17:48.577Z,1029.16
2023-02-05T08:18:48.498Z,1029.16
2023-02-05T08:19:48.542Z,1029.16
2023-02-05T08:20:48.474Z,1029.16
2023-02-05T08:21:49.580Z,1029.18
2023-02-05T08:22:48.471Z,1029.13
2023-02-05T08:24:09.642Z,1029.15
2023-02-05T08:24:48.436Z,1029.17
2023-02-05T08:25:48.424Z,1029.16
2023-02-05T08:26:50.432Z,1029.17
2023-02-05T08:27:48.454Z,1029.16
2023-02-05T08:28:49.422Z,1029.17
2023-02-05T08:29:48.403Z,1029.21
2023-02-05T08:30:48.418Z,1029.18
2023-02-05T08:31:48.375Z,1029.17
2023-02-05T08:32:48.472Z,1029.17
2023-02-05T08:33:48.338Z,1029.12
2023-02-05T08:34:48.442Z,1029.20
2023-02-05T08:35:48.317Z,1029.18
2023-02-05T08:36:48.349Z,1029.17
2023-02-05T08:37:48.311Z,1029.20
2023-02-05T08:38:48.361Z,1029.18
2023-02-05T08:39:48.292Z,1029.19
2023-02-05T08:40:48.378Z,1029.21
2023-02-05T08:41:48.254Z,1029.23
2023-02-05T08:42:48.337Z,1029.20
2023-02-05T08:43:48.229Z,1029.23
2023-02-05T08:44:48.301Z,1029.24
2023-02-05T08:45:48.250Z,1029.24
2023-02-05T08:46:50.387Z,1029.18
2023-02-05T08:47:48.204Z,1029.18
2023-02-05T08:48:48.227Z,1029.16
2023-02-05T08:49:48.168Z,1029.19
2023-02-05T08:50:48.237Z,1029.22
2023-02-05T08:51:48.145Z,1029.23
2023-02-05T08:52:48.202Z,1029.25
2023-02-05T08:53:48.131Z,1029.21
2023-02-05T08:54:48.171Z,1029.20
2023-02-05T08:55:48.120Z,1029.21
2023-02-05T08:56:48.182Z,1029.20
2023-02-05T08:57:48.108Z,1029.22
2023-02-05T08:58:48.091Z,1029.24
2023-02-05T08:59:48.056Z,1029.22
2023-02-05T09:00:48.130Z,1029.23
2023-02-05T09:01:48.031Z,1029.21
2023-02-05T09:02:48.067Z,1029.25
2023-02-05T09:03:48.013Z,1029.25
2023-02-05T09:04:48.033Z,1029.24
2023-02-05T09:05:47.987Z,1029.29
2023-02-05T09:06:49.072Z,1029.30
2023-02-05T09:07:47.985Z,1029.32
2023-02-05T09:08:48.057Z,1029.29
2023-02-05T09:09:47.946Z,1029.31
2023-02-05T09:11:08.969Z,1029.27
2023-02-05T09:11:47.933Z,1029.30
2023-02-05T09:12:48.033Z,1029.30
2023-02-05T09:13:47.907Z,1029.26
2023-02-05T09:14:48.922Z,1029.23
2023-02-05T09:15:48.668Z,1029.28
2023-02-05T09:16:47.924Z,1029.24
2023-02-05T09:17:47.883Z,1029.24
2023-02-05T09:18:47.918Z,1029.26
2023-02-05T09:19:47.844Z,1029.28
2023-02-05T09:20:47.932Z,1029.24
2023-02-05T09:21:47.822Z,1029.20
2023-02-05T09:22:47.900Z,1029.27
2023-02-05T09:23:47.804Z,1029.32
2023-02-05T09:24:47.859Z,1029.30
2023-02-05T09:25:47.781Z,1029.33
2023-02-05T09:26:47.892Z,1029.30
2023-02-05T09:27:47.790Z,1029.28
2023-02-05T09:28:47.785Z,1029.28
2023-02-05T09:29:47.747Z,1029.28
2023-02-05T09:30:47.964Z,1029.31
2023-02-05T09:31:47.873Z,1029.28
2023-02-05T09:32:47.766Z,1029.33
2023-02-05T09:33:47.696Z,1029.26
2023-02-05T09:34:47.725Z,1029.24
2023-02-05T09:35:47.674Z,1029.24
2023-02-05T09:36:47.740Z,1029.25
2023-02-05T09:37:47.671Z,1029.24
2023-02-05T09:38:47.753Z,1029.24
2023-02-05T09:40:20.000Z,1029.29
2023-02-05T09:40:48.616Z,1029.26
2023-02-05T09:41:47.611Z,1029.27
2023-02-05T09:42:47.696Z,1029.27
2023-02-05T09:43:47.588Z,1029.30
2023-02-05T09:44:47.691Z,1029.32
2023-02-05T09:45:47.612Z,1029.28
2023-02-05T09:46:47.620Z,1029.30
2023-02-05T09:47:47.563Z,1029.34
2023-02-05T09:48:47.622Z,1029.33
2023-02-05T09:49:47.524Z,1029.43
2023-02-05T09:50:47.531Z,1029.35
2023-02-05T09:51:47.503Z,1029.39
2023-02-05T09:52:47.602Z,1029.35
2023-02-05T09:53:47.487Z,1029.34
2023-02-05T09:54:47.555Z,1029.43
2023-02-05T09:55:47.465Z,1029.40
2023-02-05T09:56:48.539Z,1029.47
2023-02-05T09:57:47.455Z,1029.43
2023-02-05T09:58:48.562Z,1029.52
2023-02-05T09:59:47.416Z,1029.44
2023-02-05T10:00:48.416Z,1029.50
2023-02-05T10:01:47.395Z,1029.47
2023-02-05T10:02:47.472Z,1029.51
2023-02-05T10:03:47.374Z,1029.50
2023-02-05T10:04:47.417Z,1029.54
2023-02-05T10:05:47.352Z,1029.57
2023-02-05T10:06:47.433Z,1029.59
2023-02-05T10:07:47.342Z,1029.62
2023-02-05T10:08:47.341Z,1029.67
2023-02-05T10:09:47.300Z,1029.63
2023-02-05T10:10:47.372Z,1029.62
2023-02-05T10:11:47.279Z,1029.57
2023-02-05T10:12:47.330Z,1029.52
2023-02-05T10:13:47.259Z,1029.56
2023-02-05T10:14:49.183Z,1029.53
2023-02-05T10:15:47.328Z,1029.55
2023-02-05T10:16:47.322Z,1029.54
2023-02-05T10:17:47.212Z,1029.53
2023-02-05T10:18:47.262Z,1029.57
2023-02-05T10:19:47.189Z,1029.54
2023-02-05T10:20:47.220Z,1029.59
2023-02-05T10:21:47.175Z,1029.58
2023-02-05T10:22:47.234Z,1029.63
2023-02-05T10:23:47.167Z,1029.62
2023-02-05T10:24:47.351Z,1029.62
2023-02-05T10:25:47.136Z,1029.64
2023-02-05T10:26:47.161Z,1029.64
2023-02-05T10:27:47.162Z,1029.69
2023-02-05T10:28:47.231Z,1029.69
2023-02-05T10:29:47.083Z,1029.70
2023-02-05T10:30:47.222Z,1029.70
2023-02-05T10:31:47.086Z,1029.73
2023-02-05T10:32:47.104Z,1029.75
2023-02-05T10:33:47.056Z,1029.74
2023-02-05T10:34:47.120Z,1029.73
2023-02-05T10:35:47.023Z,1029.77
2023-02-05T10:36:48.061Z,1029.74
2023-02-05T10:37:47.721Z,1029.74
2023-02-05T10:38:47.093Z,1029.71
2023-02-05T10:39:46.980Z,1029.78
2023-02-05T10:40:47.058Z,1029.80
2023-02-05T10:41:47.052Z,1029.84
2023-02-05T10:43:11.080Z,1029.86
2023-02-05T10:43:46.932Z,1029.94
2023-02-05T10:44:46.917Z,1030.01
2023-02-05T10:45:48.967Z,1030.04
2023-02-05T10:46:46.902Z,1030.03
2023-02-05T10:47:47.922Z,1030.00
2023-02-05T10:48:46.897Z,1030.03
2023-02-05T10:49:46.911Z,1030.09
2023-02-05T10:50:46.852Z,1030.11
2023-02-05T10:51:46.926Z,1030.10
2023-02-05T10:52:46.846Z,1030.15
2023-02-05T10:53:46.892Z,1030.21
2023-02-05T10:54:46.832Z,1030.18
2023-02-05T10:55:46.854Z,1030.21
2023-02-05T10:56:46.791Z,1030.16
2023-02-05T10:57:46.867Z,1030.22
2023-02-05T10:58:46.785Z,1030.27
2023-02-05T10:59:46.777Z,1030.29
2023-02-05T11:00:46.745Z,1030.20
2023-02-05T11:01:46.845Z,1030.20
2023-02-05T11:02:46.769Z,1030.22
2023-02-05T11:03:46.753Z,1030.25
2023-02-05T11:04:46.698Z,1030.23
2023-02-05T11:05:46.718Z,1030.27
2023-02-05T11:06:46.679Z,1030.31
2023-02-05T11:07:46.732Z,1030.28
2023-02-05T11:08:46.674Z,1030.31
2023-02-05T11:09:46.745Z,1030.34
2023-02-05T11:10:46.639Z,1030.31
2023-02-05T11:11:46.653Z,1030.30
2023-02-05T11:12:46.616Z,1030.32
2023-02-05T11:13:46.722Z,1030.38
2023-02-05T11:14:46.597Z,1030.33
2023-02-05T11:15:46.733Z,1030.28
2023-02-05T11:16:46.585Z,1030.31
2023-02-05T11:17:46.671Z,1030.35
2023-02-05T11:18:46.575Z,1030.35
2023-02-05T11:19:46.605Z,1030.43
2023-02-05T11:20:46.526Z,1030.42
2023-02-05T11:21:46.617Z,1030.42
2023-02-05T11:22:46.504Z,1030.44
2023-02-05T11:23:46.586Z,1030.48
2023-02-05T11:24:46.481Z,1030.48
2023-02-05T11:25:46.542Z,1030.49
2023-02-05T11:26:46.460Z,1030.50
2023-02-05T11:27:46.632Z,1030.59
2023-02-05T11:28:46.458Z,1030.59
2023-02-05T11:30:08.490Z,1030.64
2023-02-05T11:30:53.961Z,1030.65
2023-02-05T11:31:47.579Z,1030.66
2023-02-05T11:32:46.425Z,1030.62
2023-02-05T11:33:46.467Z,1030.59
2023-02-05T11:34:46.371Z,1030.57
2023-02-05T11:35:46.420Z,1030.54
2023-02-05T11:36:46.352Z,1030.54
2023-02-05T11:37:46.426Z,1030.59
2023-02-05T11:38:46.362Z,1030.57
2023-02-05T11:39:46.337Z,1030.58
2023-02-05T11:40:46.309Z,1030.65
2023-02-05T11:41:46.350Z,1030.65
2023-02-05T11:42:46.292Z,1030.72
2023-02-05T11:43:46.309Z,1030.73
2023-02-05T11:44:46.263Z,1030.72
2023-02-05T11:45:46.272Z,1030.74
2023-02-05T11:46:46.273Z,1030.72
2023-02-05T11:47:46.289Z,1030.74
2023-02-05T11:48:46.238Z,1030.76
2023-02-05T11:49:46.316Z,1030.76
2023-02-05T11:50:46.186Z,1030.79
2023-02-05T11:51:46.211Z,1030.84
2023-02-05T11:52:46.182Z,1030.80
2023-02-05T11:53:46.276Z,1030.81
2023-02-05T11:54:46.156Z,1030.79
2023-02-05T11:55:46.241Z,1030.87
2023-02-05T11:56:46.235Z,1030.86
2023-02-05T11:57:46.152Z,1030.94
2023-02-05T11:58:46.128Z,1030.86
2023-02-05T11:59:46.164Z,1030.90
2023-02-05T12:00:46.090Z,1030.95
2023-02-05T12:01:46.209Z,1030.99
2023-02-05T12:02:46.090Z,1030.93
2023-02-05T12:03:46.147Z,1030.96
2023-02-05T12:04:46.052Z,1030.97
2023-02-05T12:05:46.136Z,1030.98
2023-02-05T12:06:46.046Z,1030.97